createdAt,value
2018-05-08T00:00:09.818Z,16.81
2018-05-08T00:01:09.815Z,16.80
2018-05-08T00:02:09.811Z,16.78
2018-05-08T00:03:09.810Z,16.65
2018-05-08T00:04:09.820Z,16.70
2018-05-08T00:05:09.812Z,16.67
2018-05-08T00:06:09.807Z,16.63
2018-05-08T00:07:09.806Z,16.51
2018-05-08T00:08:09.805Z,16.54
2018-05-08T00:09:09.803Z,16.52
2018-05-08T00:10:09.806Z,16.40
2018-05-08T00:11:09.806Z,16.34
2018-05-08T00:12:09.805Z,16.34
2018-05-08T00:13:09.803Z,16.33
2018-05-08T00:14:09.798Z,16.34
2018-05-08T00:15:09.796Z,16.29
2018-05-08T00:16:09.796Z,16.25
2018-05-08T00:17:09.793Z,16.27
2018-05-08T00:18:09.796Z,16.25
2018-05-08T00:19:09.795Z,16.14
2018-05-08T00:20:09.791Z,16.10
2018-05-08T00:21:09.793Z,16.07
2018-05-08T00:22:09.791Z,16.11
2018-05-08T00:23:09.790Z,16.08
2018-05-08T00:24:09.790Z,16.10
2018-05-08T00:25:09.788Z,16.06
2018-05-08T00:26:09.785Z,16.03
2018-05-08T00:27:09.780Z,16.04
2018-05-08T00:28:09.779Z,15.93
2018-05-08T00:29:09.778Z,15.96
2018-05-08T00:30:09.781Z,15.84
2018-05-08T00:31:09.779Z,15.85
2018-05-08T00:32:09.777Z,15.85
2018-05-08T00:33:09.804Z,15.80
2018-05-08T00:34:09.769Z,15.80
2018-05-08T00:35:09.770Z,15.77
2018-05-08T00:36:09.771Z,15.77
2018-05-08T00:37:09.769Z,15.76
2018-05-08T00:38:09.764Z,15.67
2018-05-08T00:39:09.762Z,15.64
2018-05-08T00:40:09.762Z,15.66
2018-05-08T00:41:09.761Z,15.67
2018-05-08T00:42:09.761Z,15.68
2018-05-08T00:43:09.761Z,15.67
2018-05-08T00:44:09.758Z,15.53
2018-05-08T00:45:09.756Z,15.62
2018-05-08T00:46:09.751Z,15.60
2018-05-08T00:47:09.750Z,15.58
2018-05-08T00:48:09.747Z,15.53
2018-05-08T00:49:09.745Z,15.53
2018-05-08T00:50:09.751Z,15.52
2018-05-08T00:51:09.749Z,15.48
2018-05-08T00:52:09.744Z,15.52
2018-05-08T00:53:09.737Z,15.52
2018-05-08T00:54:09.741Z,15.52
2018-05-08T00:55:09.745Z,15.49
2018-05-08T00:56:09.737Z,15.51
2018-05-08T00:57:09.735Z,15.41
2018-05-08T00:58:09.729Z,15.51
2018-05-08T00:59:09.727Z,15.43
2018-05-08T01:00:09.726Z,15.38
2018-05-08T01:01:09.723Z,15.51
2018-05-08T01:02:09.726Z,15.49
2018-05-08T01:03:09.724Z,15.37
2018-05-08T01:04:09.724Z,15.48
2018-05-08T01:05:09.721Z,15.43
2018-05-08T01:06:09.715Z,15.40
2018-05-08T01:07:09.714Z,15.51
2018-05-08T01:08:09.718Z,15.51
2018-05-08T01:09:09.714Z,15.41
2018-05-08T01:10:09.708Z,15.40
2018-05-08T01:11:09.705Z,15.55
2018-05-08T01:12:09.706Z,15.41
2018-05-08T01:13:09.700Z,15.51
2018-05-08T01:14:09.703Z,15.46
2018-05-08T01:15:09.701Z,15.37
2018-05-08T01:16:09.702Z,15.35
2018-05-08T01:17:09.794Z,15.40
2018-05-08T01:18:09.693Z,15.31
2018-05-08T01:19:09.691Z,15.33
2018-05-08T01:20:09.689Z,15.33
2018-05-08T01:21:09.685Z,15.33
2018-05-08T01:22:09.689Z,15.20
2018-05-08T01:23:09.687Z,15.16
2018-05-08T01:24:09.680Z,15.16
2018-05-08T01:25:09.677Z,15.12
2018-05-08T01:26:09.681Z,15.16
2018-05-08T01:27:09.682Z,15.15
2018-05-08T01:28:09.676Z,15.05
2018-05-08T01:29:09.673Z,15.04
2018-05-08T01:30:09.667Z,15.01
2018-05-08T01:31:09.666Z,15.15
2018-05-08T01:32:09.663Z,15.01
2018-05-08T01:33:09.660Z,15.03
2018-05-08T01:34:09.663Z,15.04
2018-05-08T01:35:09.661Z,15.04
2018-05-08T01:36:09.660Z,15.00
2018-05-08T01:37:09.656Z,15.00
2018-05-08T01:38:09.649Z,15.00
2018-05-08T01:39:09.650Z,15.11
2018-05-08T01:40:09.658Z,14.97
2018-05-08T01:41:09.647Z,15.09
2018-05-08T01:42:09.644Z,14.98
2018-05-08T01:43:09.653Z,14.90
2018-05-08T01:44:09.636Z,14.78
2018-05-08T01:45:09.633Z,14.78
2018-05-08T01:46:09.636Z,14.69
2018-05-08T01:47:09.633Z,14.71
2018-05-08T01:48:09.633Z,14.71
2018-05-08T01:49:09.632Z,14.61
2018-05-08T01:50:09.621Z,14.60
2018-05-08T01:51:09.621Z,14.57
2018-05-08T01:52:09.618Z,14.60
2018-05-08T01:53:09.617Z,14.64
2018-05-08T01:54:09.616Z,14.60
2018-05-08T01:55:09.614Z,14.52
2018-05-08T01:56:09.608Z,14.52
2018-05-08T01:57:09.606Z,14.49
2018-05-08T01:58:09.607Z,14.46
2018-05-08T01:59:09.604Z,14.41
2018-05-08T02:00:09.605Z,14.45
2018-05-08T02:01:09.601Z,14.38
2018-05-08T02:02:09.593Z,14.36
2018-05-08T02:03:09.590Z,14.39
2018-05-08T02:04:09.589Z,14.35
2018-05-08T02:05:09.585Z,14.30
2018-05-08T02:06:09.588Z,14.30
2018-05-08T02:07:09.585Z,14.29
2018-05-08T02:08:09.583Z,14.23
2018-05-08T02:09:09.583Z,14.23
2018-05-08T02:10:09.573Z,14.20
2018-05-08T02:11:09.570Z,14.02
2018-05-08T02:12:09.573Z,14.06
2018-05-08T02:13:09.568Z,13.99
2018-05-08T02:14:09.565Z,14.06
2018-05-08T02:15:09.560Z,14.06
2018-05-08T02:16:09.558Z,13.99
2018-05-08T02:17:09.556Z,14.06
2018-05-08T02:18:09.557Z,14.11
2018-05-08T02:19:09.555Z,14.01
2018-05-08T02:20:09.552Z,14.02
2018-05-08T02:21:09.551Z,13.94
2018-05-08T02:22:09.540Z,13.98
2018-05-08T02:23:09.538Z,13.91
2018-05-08T02:24:09.537Z,13.93
2018-05-08T02:25:09.532Z,13.98
2018-05-08T02:26:09.533Z,13.99
2018-05-08T02:27:09.531Z,13.93
2018-05-08T02:28:09.524Z,13.94
2018-05-08T02:29:09.520Z,13.93
2018-05-08T02:30:09.522Z,13.88
2018-05-08T02:31:09.519Z,13.88
2018-05-08T02:32:09.518Z,13.81
2018-05-08T02:33:09.515Z,13.86
2018-05-08T02:34:09.507Z,13.83
2018-05-08T02:35:09.504Z,13.84
2018-05-08T02:36:09.503Z,13.80
2018-05-08T02:37:09.500Z,13.84
2018-05-08T02:38:09.499Z,13.72
2018-05-08T02:39:09.500Z,13.86
2018-05-08T02:40:09.493Z,13.88
2018-05-08T02:41:09.489Z,13.75
2018-05-08T02:42:09.485Z,13.83
2018-05-08T02:43:09.480Z,13.84
2018-05-08T02:44:09.482Z,13.81
2018-05-08T02:45:09.479Z,13.80
2018-05-08T02:46:09.471Z,13.84
2018-05-08T02:47:09.471Z,13.79
2018-05-08T02:48:09.465Z,13.76
2018-05-08T02:49:09.463Z,13.75
2018-05-08T02:50:09.463Z,13.68
2018-05-08T02:51:09.462Z,13.65
2018-05-08T02:52:09.454Z,13.59
2018-05-08T02:53:09.448Z,13.48
2018-05-08T02:54:09.452Z,13.54
2018-05-08T02:55:09.449Z,13.44
2018-05-08T02:56:09.450Z,13.46
2018-05-08T02:57:09.444Z,13.48
2018-05-08T02:58:09.436Z,13.46
2018-05-08T02:59:09.434Z,13.48
2018-05-08T03:00:09.435Z,13.44
2018-05-08T03:01:09.437Z,13.53
2018-05-08T03:02:09.423Z,13.41
2018-05-08T03:03:09.420Z,13.46
2018-05-08T03:04:09.417Z,13.46
2018-05-08T03:05:09.415Z,13.51
2018-05-08T03:06:09.414Z,13.54
2018-05-08T03:07:09.412Z,13.50
2018-05-08T03:08:09.408Z,13.43
2018-05-08T03:09:09.405Z,13.48
2018-05-08T03:10:09.398Z,13.46
2018-05-08T03:11:09.394Z,13.46
2018-05-08T03:12:09.392Z,13.50
2018-05-08T03:13:09.392Z,13.48
2018-05-08T03:14:09.391Z,13.48
2018-05-08T03:15:09.387Z,13.46
2018-05-08T03:16:09.378Z,13.41
2018-05-08T03:17:09.374Z,13.44
2018-05-08T03:18:09.376Z,13.39
2018-05-08T03:19:09.374Z,13.39
2018-05-08T03:20:09.370Z,13.39
2018-05-08T03:21:09.371Z,13.36
2018-05-08T03:22:09.363Z,13.44
2018-05-08T03:23:09.355Z,13.27
2018-05-08T03:24:09.354Z,13.27
2018-05-08T03:25:09.348Z,13.32
2018-05-08T03:26:09.349Z,13.22
2018-05-08T03:27:09.347Z,13.12
2018-05-08T03:28:09.345Z,13.12
2018-05-08T03:29:09.341Z,13.16
2018-05-08T03:30:09.332Z,13.14
2018-05-08T03:31:09.329Z,13.06
2018-05-08T03:32:09.332Z,12.94
2018-05-08T03:33:09.326Z,12.95
2018-05-08T03:34:09.320Z,12.96
2018-05-08T03:35:09.316Z,12.96
2018-05-08T03:36:09.312Z,12.95
2018-05-08T03:37:09.325Z,12.89
2018-05-08T03:38:09.309Z,12.85
2018-05-08T03:39:09.306Z,12.84
2018-05-08T03:40:09.304Z,12.81
2018-05-08T03:41:09.299Z,12.73
2018-05-08T03:42:09.291Z,12.69
2018-05-08T03:43:09.288Z,12.79
2018-05-08T03:44:09.288Z,12.69
2018-05-08T03:45:09.281Z,12.70
2018-05-08T03:46:09.282Z,12.74
2018-05-08T03:47:09.280Z,12.71
2018-05-08T03:48:09.270Z,12.56
2018-05-08T03:49:09.268Z,12.62
2018-05-08T03:50:09.274Z,12.66
2018-05-08T03:51:09.266Z,12.61
2018-05-08T03:52:09.260Z,12.51
2018-05-08T03:53:09.258Z,12.56
2018-05-08T03:54:09.250Z,12.52
2018-05-08T03:55:09.244Z,12.52
2018-05-08T03:56:09.242Z,12.58
2018-05-08T03:57:09.239Z,12.58
2018-05-08T03:58:09.240Z,12.61
2018-05-08T03:59:09.236Z,12.58
2018-05-08T04:00:09.231Z,12.55
2018-05-08T04:01:09.228Z,12.56
2018-05-08T04:02:09.220Z,12.61
2018-05-08T04:03:09.216Z,12.58
2018-05-08T04:04:09.218Z,12.63
2018-05-08T04:05:09.213Z,12.62
2018-05-08T04:06:09.205Z,12.55
2018-05-08T04:07:09.202Z,12.55
2018-05-08T04:08:09.199Z,12.56
2018-05-08T04:09:09.194Z,12.73
2018-05-08T04:10:09.275Z,12.73
2018-05-08T04:11:09.194Z,12.58
2018-05-08T04:12:09.189Z,12.61
2018-05-08T04:13:09.185Z,12.55
2018-05-08T04:14:09.176Z,12.67
2018-05-08T04:15:09.179Z,12.62
2018-05-08T04:16:09.169Z,12.61
2018-05-08T04:17:09.165Z,12.62
2018-05-08T04:18:09.167Z,12.62
2018-05-08T04:19:09.162Z,12.62
2018-05-08T04:20:09.153Z,12.55
2018-05-08T04:21:09.217Z,12.70
2018-05-08T04:22:09.150Z,12.62
2018-05-08T04:23:09.152Z,12.56
2018-05-08T04:24:09.144Z,12.56
2018-05-08T04:25:09.139Z,12.61
2018-05-08T04:26:09.132Z,12.58
2018-05-08T04:27:09.128Z,12.59
2018-05-08T04:28:09.129Z,12.62
2018-05-08T04:29:09.120Z,12.61
2018-05-08T04:30:09.121Z,12.58
2018-05-08T04:31:09.118Z,12.67
2018-05-08T04:32:09.115Z,12.70
2018-05-08T04:33:09.110Z,12.66
2018-05-08T04:34:09.108Z,12.77
2018-05-08T04:35:09.099Z,12.80
2018-05-08T04:36:09.100Z,12.92
2018-05-08T04:37:09.096Z,13.09
2018-05-08T04:38:09.088Z,13.14
2018-05-08T04:39:09.087Z,13.21
2018-05-08T04:40:09.082Z,13.28
2018-05-08T04:41:09.078Z,13.43
2018-05-08T04:42:09.081Z,13.61
2018-05-08T04:43:09.078Z,13.84
2018-05-08T04:44:09.075Z,13.94
2018-05-08T04:45:09.072Z,13.99
2018-05-08T04:46:09.065Z,14.27
2018-05-08T04:47:09.064Z,14.48
2018-05-08T04:48:09.067Z,14.72
2018-05-08T04:49:09.059Z,14.97
2018-05-08T04:50:09.061Z,15.40
2018-05-08T04:51:09.061Z,15.64
2018-05-08T04:52:09.056Z,16.04
2018-05-08T04:53:09.053Z,16.51
2018-05-08T04:54:09.057Z,16.88
2018-05-08T04:55:09.056Z,17.43
2018-05-08T04:56:09.057Z,17.91
2018-05-08T04:57:09.055Z,18.29
2018-05-08T04:58:09.050Z,18.69
2018-05-08T04:59:09.051Z,19.01
2018-05-08T05:00:09.050Z,19.55
2018-05-08T05:01:09.049Z,19.89
2018-05-08T05:02:09.055Z,20.34
2018-05-08T05:03:09.055Z,20.69
2018-05-08T05:04:09.058Z,21.03
2018-05-08T05:05:09.058Z,21.36
2018-05-08T05:06:09.054Z,21.55
2018-05-08T05:07:09.055Z,21.91
2018-05-08T05:08:09.062Z,22.15
2018-05-08T05:09:09.069Z,22.54
2018-05-08T05:10:09.059Z,22.78
2018-05-08T05:11:09.082Z,23.01
2018-05-08T05:12:09.064Z,23.42
2018-05-08T05:13:09.065Z,23.69
2018-05-08T05:14:09.072Z,24.00
2018-05-08T05:15:09.074Z,24.21
2018-05-08T05:16:09.077Z,24.53
2018-05-08T05:17:09.079Z,24.66
2018-05-08T05:18:09.082Z,25.04
2018-05-08T05:19:09.081Z,25.36
2018-05-08T05:20:09.086Z,25.57
2018-05-08T05:21:09.088Z,25.72
2018-05-08T05:22:09.096Z,25.91
2018-05-08T05:23:09.100Z,26.06
2018-05-08T05:24:09.099Z,26.31
2018-05-08T05:25:09.103Z,26.53
2018-05-08T05:26:09.115Z,26.86
2018-05-08T05:27:09.115Z,26.96
2018-05-08T05:28:09.119Z,27.03
2018-05-08T05:29:09.123Z,27.30
2018-05-08T05:30:09.123Z,27.49
2018-05-08T05:31:09.128Z,27.66
2018-05-08T05:32:09.133Z,27.88
2018-05-08T05:33:09.137Z,28.18
2018-05-08T05:34:09.147Z,28.20
2018-05-08T05:35:09.153Z,28.43
2018-05-08T05:36:09.158Z,28.57
2018-05-08T05:37:09.163Z,28.57
2018-05-08T05:38:09.164Z,28.70
2018-05-08T05:39:09.170Z,28.73
2018-05-08T05:40:09.180Z,28.85
2018-05-08T05:41:09.186Z,29.02
2018-05-08T05:42:09.187Z,29.27
2018-05-08T05:43:09.198Z,29.49
2018-05-08T05:44:09.204Z,29.51
2018-05-08T05:45:09.206Z,29.58
2018-05-08T05:46:09.217Z,29.70
2018-05-08T05:47:09.224Z,30.04
2018-05-08T05:48:09.230Z,30.07
2018-05-08T05:49:09.239Z,30.28
2018-05-08T05:50:09.238Z,30.51
2018-05-08T05:51:09.246Z,30.56
2018-05-08T05:52:09.253Z,30.73
2018-05-08T05:53:09.261Z,30.81
2018-05-08T05:54:09.273Z,30.96
2018-05-08T05:55:09.280Z,31.09
2018-05-08T05:56:09.282Z,31.07
2018-05-08T05:57:09.293Z,31.35
2018-05-08T05:58:09.305Z,31.67
2018-05-08T05:59:09.311Z,31.72
2018-05-08T06:00:09.405Z,31.88
2018-05-08T06:01:09.325Z,32.06
2018-05-08T06:02:09.329Z,32.17
2018-05-08T06:03:09.339Z,32.25
2018-05-08T06:04:09.346Z,32.36
2018-05-08T06:05:09.354Z,31.87
2018-05-08T06:06:09.368Z,31.79
2018-05-08T06:07:09.378Z,31.69
2018-05-08T06:08:09.384Z,31.94
2018-05-08T06:09:09.398Z,31.98
2018-05-08T06:10:09.397Z,32.10
2018-05-08T06:11:09.406Z,32.24
2018-05-08T06:12:09.420Z,32.54
2018-05-08T06:13:09.429Z,32.88
2018-05-08T06:14:09.434Z,33.09
2018-05-08T06:15:09.443Z,33.29
2018-05-08T06:16:09.453Z,33.18
2018-05-08T06:17:09.462Z,33.57
2018-05-08T06:18:09.476Z,33.63
2018-05-08T06:19:09.488Z,33.87
2018-05-08T06:20:09.497Z,34.00
2018-05-08T06:21:09.506Z,34.09
2018-05-08T06:22:09.512Z,33.96
2018-05-08T06:23:09.523Z,34.08
2018-05-08T06:24:09.533Z,33.74
2018-05-08T06:25:09.543Z,33.81
2018-05-08T06:26:09.558Z,33.38
2018-05-08T06:27:09.569Z,33.37
2018-05-08T06:28:09.576Z,33.24
2018-05-08T06:29:09.586Z,33.49
2018-05-08T06:30:09.605Z,33.82
2018-05-08T06:31:09.630Z,34.31
2018-05-08T06:32:09.627Z,34.73
2018-05-08T06:33:09.635Z,34.90
2018-05-08T06:34:09.643Z,35.27
2018-05-08T06:35:09.653Z,35.47
2018-05-08T06:36:09.666Z,35.68
2018-05-08T06:37:09.677Z,35.96
2018-05-08T06:38:09.692Z,36.27
2018-05-08T06:39:09.704Z,36.52
2018-05-08T06:40:09.783Z,36.74
2018-05-08T06:41:09.728Z,36.86
2018-05-08T06:42:09.736Z,37.24
2018-05-08T06:43:09.748Z,37.35
2018-05-08T06:44:09.771Z,37.53
2018-05-08T06:45:09.777Z,37.77
2018-05-08T06:46:09.785Z,37.59
2018-05-08T06:47:09.799Z,37.54
2018-05-08T06:48:09.812Z,37.65
2018-05-08T06:49:09.825Z,37.77
2018-05-08T06:50:09.843Z,38.09
2018-05-08T06:51:09.855Z,38.07
2018-05-08T06:52:09.870Z,38.43
2018-05-08T06:53:09.883Z,38.90
2018-05-08T06:54:09.891Z,39.10
2018-05-08T06:55:09.904Z,39.38
2018-05-08T06:56:09.919Z,39.65
2018-05-08T06:57:09.932Z,39.61
2018-05-08T06:58:09.950Z,39.61
2018-05-08T06:59:09.966Z,39.57
2018-05-08T07:00:09.975Z,39.17
2018-05-08T07:01:09.992Z,39.47
2018-05-08T07:02:10.009Z,39.76
2018-05-08T07:03:10.023Z,40.02
2018-05-08T07:04:10.039Z,40.07
2018-05-08T07:05:10.051Z,40.49
2018-05-08T07:06:10.063Z,40.60
2018-05-08T07:07:10.077Z,40.63
2018-05-08T07:08:10.093Z,39.84
2018-05-08T07:09:10.111Z,39.29
2018-05-08T07:10:10.132Z,38.75
2018-05-08T07:11:10.147Z,38.71
2018-05-08T07:12:10.158Z,38.31
2018-05-08T07:13:10.173Z,38.70
2018-05-08T07:14:10.185Z,39.22
2018-05-08T07:15:10.202Z,38.93
2018-05-08T07:16:10.421Z,38.47
2018-05-08T07:17:10.237Z,38.65
2018-05-08T07:18:10.247Z,38.03
2018-05-08T07:19:10.264Z,38.26
2018-05-08T07:20:10.279Z,36.86
2018-05-08T07:21:10.296Z,35.68
2018-05-08T07:22:10.317Z,35.76
2018-05-08T07:23:10.336Z,35.93
2018-05-08T07:24:10.351Z,36.72
2018-05-08T07:25:10.365Z,37.54
2018-05-08T07:26:10.376Z,37.97
2018-05-08T07:27:10.394Z,38.49
2018-05-08T07:28:10.410Z,38.65
2018-05-08T07:29:10.429Z,38.06
2018-05-08T07:30:10.446Z,37.09
2018-05-08T07:31:10.465Z,35.87
2018-05-08T07:32:10.476Z,34.60
2018-05-08T07:33:10.492Z,33.07
2018-05-08T07:34:10.513Z,33.03
2018-05-08T07:35:10.571Z,31.19
2018-05-08T07:36:10.553Z,31.27
2018-05-08T07:37:10.563Z,32.49
2018-05-08T07:38:10.583Z,33.38
2018-05-08T07:39:10.593Z,32.43
2018-05-08T07:40:10.610Z,33.06
2018-05-08T07:41:10.626Z,33.97
2018-05-08T07:42:10.646Z,34.05
2018-05-08T07:43:10.673Z,33.96
2018-05-08T07:44:10.680Z,34.65
2018-05-08T07:45:10.694Z,33.68
2018-05-08T07:46:10.707Z,33.00
2018-05-08T07:47:10.723Z,34.01
2018-05-08T07:48:10.744Z,34.87
2018-05-08T07:49:10.760Z,35.15
2018-05-08T07:50:10.775Z,34.60
2018-05-08T07:51:10.788Z,35.64
2018-05-08T07:52:10.806Z,34.95
2018-05-08T07:53:10.821Z,35.06
2018-05-08T07:54:10.842Z,34.40
2018-05-08T07:55:10.858Z,34.05
2018-05-08T07:56:10.876Z,34.26
2018-05-08T07:57:10.897Z,34.43
2018-05-08T07:58:10.904Z,34.30
2018-05-08T07:59:10.923Z,34.50
2018-05-08T08:00:10.938Z,34.65
2018-05-08T08:01:10.955Z,35.37
2018-05-08T08:02:10.976Z,36.64
2018-05-08T08:03:10.993Z,37.66
2018-05-08T08:04:11.006Z,38.38
2018-05-08T08:05:11.024Z,39.13
2018-05-08T08:06:11.045Z,39.84
2018-05-08T08:07:11.063Z,39.87
2018-05-08T08:08:11.082Z,38.79
2018-05-08T08:09:11.102Z,36.97
2018-05-08T08:10:11.111Z,36.12
2018-05-08T08:11:11.136Z,36.84
2018-05-08T08:12:11.148Z,37.80
2018-05-08T08:13:11.165Z,37.84
2018-05-08T08:14:11.188Z,37.06
2018-05-08T08:15:11.214Z,36.64
2018-05-08T08:16:11.226Z,35.21
2018-05-08T08:17:11.244Z,36.44
2018-05-08T08:18:11.265Z,33.62
2018-05-08T08:19:11.277Z,33.38
2018-05-08T08:20:11.301Z,34.86
2018-05-08T08:21:11.320Z,35.24
2018-05-08T08:22:11.332Z,35.27
2018-05-08T08:23:11.353Z,34.90
2018-05-08T08:24:11.371Z,34.53
2018-05-08T08:25:11.389Z,34.80
2018-05-08T08:26:11.412Z,35.17
2018-05-08T08:27:11.433Z,35.77
2018-05-08T08:28:11.450Z,36.25
2018-05-08T08:29:11.467Z,37.25
2018-05-08T08:30:11.488Z,38.02
2018-05-08T08:31:11.499Z,37.87
2018-05-08T08:32:11.518Z,38.68
2018-05-08T08:33:11.536Z,39.36
2018-05-08T08:34:11.561Z,39.47
2018-05-08T08:35:11.577Z,39.59
2018-05-08T08:36:11.592Z,37.58
2018-05-08T08:37:11.611Z,37.75
2018-05-08T08:38:11.634Z,37.88
2018-05-08T08:39:11.653Z,37.60
2018-05-08T08:40:11.673Z,37.60
2018-05-08T08:41:11.690Z,37.24
2018-05-08T08:42:11.705Z,37.73
2018-05-08T08:43:11.725Z,37.31
2018-05-08T08:44:11.745Z,36.86
2018-05-08T08:45:11.764Z,36.67
2018-05-08T08:46:11.788Z,36.87
2018-05-08T08:47:11.808Z,37.49
2018-05-08T08:48:11.831Z,36.60
2018-05-08T08:49:11.849Z,36.93
2018-05-08T08:50:11.866Z,35.43
2018-05-08T08:51:11.892Z,36.86
2018-05-08T08:52:11.911Z,38.06
2018-05-08T08:53:11.936Z,38.63
2018-05-08T08:54:11.950Z,38.84
2018-05-08T08:55:11.968Z,39.14
2018-05-08T08:56:11.989Z,39.68
2018-05-08T08:57:12.009Z,39.47
2018-05-08T08:58:12.034Z,39.81
2018-05-08T08:59:12.054Z,38.28
2018-05-08T09:00:12.076Z,37.42
2018-05-08T09:01:12.095Z,38.65
2018-05-08T09:02:12.112Z,37.25
2018-05-08T09:03:12.133Z,36.84
2018-05-08T09:04:12.154Z,37.46
2018-05-08T09:05:12.174Z,37.66
2018-05-08T09:06:12.201Z,37.38
2018-05-08T09:07:12.221Z,36.46
2018-05-08T09:08:12.243Z,35.00
2018-05-08T09:09:12.257Z,35.55
2018-05-08T09:10:12.283Z,36.35
2018-05-08T09:11:12.351Z,37.15
2018-05-08T09:12:12.325Z,37.80
2018-05-08T09:13:12.351Z,38.47
2018-05-08T09:14:12.364Z,37.91
2018-05-08T09:15:12.384Z,36.87
2018-05-08T09:16:12.404Z,36.56
2018-05-08T09:17:12.425Z,37.88
2018-05-08T09:18:12.459Z,37.59
2018-05-08T09:19:12.472Z,36.13
2018-05-08T09:20:12.493Z,36.57
2018-05-08T09:21:12.513Z,36.59
2018-05-08T09:22:12.532Z,35.92
2018-05-08T09:23:12.552Z,36.65
2018-05-08T09:24:12.578Z,37.46
2018-05-08T09:25:12.598Z,38.45
2018-05-08T09:26:12.615Z,39.32
2018-05-08T09:27:12.635Z,39.99
2018-05-08T09:28:12.660Z,39.32
2018-05-08T09:29:12.683Z,38.50
2018-05-08T09:30:12.705Z,38.84
2018-05-08T09:31:12.724Z,38.47
2018-05-08T09:32:12.744Z,38.40
2018-05-08T09:33:12.765Z,37.91
2018-05-08T09:34:12.783Z,38.63
2018-05-08T09:35:12.801Z,39.35
2018-05-08T09:36:12.821Z,39.61
2018-05-08T09:37:12.841Z,39.51
2018-05-08T09:38:12.866Z,40.38
2018-05-08T09:39:12.888Z,41.14
2018-05-08T09:40:12.907Z,40.91
2018-05-08T09:41:12.924Z,41.29
2018-05-08T09:42:12.949Z,40.64
2018-05-08T09:43:12.969Z,40.04
2018-05-08T09:44:12.991Z,40.46
2018-05-08T09:45:13.012Z,40.16
2018-05-08T09:46:13.029Z,40.60
2018-05-08T09:47:13.049Z,40.11
2018-05-08T09:48:13.071Z,40.00
2018-05-08T09:49:13.152Z,38.75
2018-05-08T09:50:13.125Z,38.74
2018-05-08T09:51:13.135Z,37.47
2018-05-08T09:52:13.158Z,38.15
2018-05-08T09:53:13.175Z,38.79
2018-05-08T09:54:13.260Z,39.10
2018-05-08T09:55:13.212Z,38.41
2018-05-08T09:56:13.238Z,38.81
2018-05-08T09:57:13.256Z,38.98
2018-05-08T09:58:13.272Z,39.44
2018-05-08T09:59:13.300Z,39.44
2018-05-08T10:00:13.330Z,39.32
2018-05-08T10:01:13.332Z,39.48
2018-05-08T10:02:13.361Z,39.31
2018-05-08T10:03:13.379Z,38.79
2018-05-08T10:04:13.399Z,38.93
2018-05-08T10:05:13.420Z,37.84
2018-05-08T10:06:13.435Z,37.96
2018-05-08T10:07:13.455Z,37.43
2018-05-08T10:08:13.474Z,37.18
2018-05-08T10:09:13.497Z,36.34
2018-05-08T10:10:13.520Z,35.50
2018-05-08T10:11:13.538Z,34.90
2018-05-08T10:12:13.553Z,35.15
2018-05-08T10:13:13.571Z,34.42
2018-05-08T10:14:13.595Z,34.30
2018-05-08T10:15:13.615Z,34.95
2018-05-08T10:16:13.634Z,35.91
2018-05-08T10:17:13.650Z,35.52
2018-05-08T10:18:13.665Z,35.61
2018-05-08T10:19:13.686Z,36.44
2018-05-08T10:20:13.700Z,37.15
2018-05-08T10:21:13.718Z,37.16
2018-05-08T10:22:13.740Z,37.28
2018-05-08T10:23:13.759Z,37.60
2018-05-08T10:24:13.779Z,36.84
2018-05-08T10:25:13.796Z,36.30
2018-05-08T10:26:13.809Z,35.95
2018-05-08T10:27:13.828Z,36.12
2018-05-08T10:28:13.850Z,35.93
2018-05-08T10:29:13.868Z,35.69
2018-05-08T10:30:13.883Z,36.11
2018-05-08T10:31:13.906Z,36.49
2018-05-08T10:32:13.919Z,35.66
2018-05-08T10:33:13.937Z,35.54
2018-05-08T10:34:13.957Z,35.92
2018-05-08T10:35:13.975Z,36.06
2018-05-08T10:36:13.993Z,36.08
2018-05-08T10:37:14.014Z,36.18
2018-05-08T10:38:14.025Z,36.05
2018-05-08T10:39:14.046Z,36.23
2018-05-08T10:40:14.060Z,36.25
2018-05-08T10:41:14.077Z,36.30
2018-05-08T10:42:14.101Z,36.16
2018-05-08T10:43:14.118Z,35.44
2018-05-08T10:44:14.130Z,34.80
2018-05-08T10:45:14.147Z,35.09
2018-05-08T10:46:14.170Z,35.15
2018-05-08T10:47:14.187Z,35.25
2018-05-08T10:48:14.203Z,35.83
2018-05-08T10:49:14.219Z,35.84
2018-05-08T10:50:14.233Z,35.68
2018-05-08T10:51:14.250Z,35.10
2018-05-08T10:52:14.267Z,35.00
2018-05-08T10:53:14.283Z,34.53
2018-05-08T10:54:14.306Z,34.91
2018-05-08T10:55:14.321Z,35.17
2018-05-08T10:56:14.344Z,34.61
2018-05-08T10:57:14.357Z,34.84
2018-05-08T10:58:14.367Z,34.00
2018-05-08T10:59:14.387Z,33.90
2018-05-08T11:00:14.407Z,33.63
2018-05-08T11:01:14.422Z,34.27
2018-05-08T11:02:14.433Z,34.50
2018-05-08T11:03:14.451Z,35.54
2018-05-08T11:04:14.466Z,36.25
2018-05-08T11:05:14.482Z,36.05
2018-05-08T11:06:14.502Z,35.56
2018-05-08T11:07:14.520Z,34.67
2018-05-08T11:08:14.536Z,33.78
2018-05-08T11:09:14.552Z,34.50
2018-05-08T11:10:14.568Z,34.30
2018-05-08T11:11:14.581Z,34.06
2018-05-08T11:12:14.598Z,34.87
2018-05-08T11:13:14.613Z,35.00
2018-05-08T11:14:14.635Z,34.93
2018-05-08T11:15:14.652Z,34.48
2018-05-08T11:16:14.664Z,33.87
2018-05-08T11:17:14.678Z,34.45
2018-05-08T11:18:14.699Z,34.26
2018-05-08T11:19:14.725Z,34.27
2018-05-08T11:20:14.729Z,33.28
2018-05-08T11:21:14.744Z,33.44
2018-05-08T11:22:14.756Z,33.09
2018-05-08T11:23:14.774Z,32.43
2018-05-08T11:24:14.792Z,31.99
2018-05-08T11:25:14.803Z,31.69
2018-05-08T11:26:14.813Z,31.52
2018-05-08T11:27:14.897Z,30.79
2018-05-08T11:28:14.841Z,30.64
2018-05-08T11:29:14.853Z,30.40
2018-05-08T11:30:14.873Z,30.15
2018-05-08T11:31:14.884Z,29.94
2018-05-08T11:32:14.895Z,30.03
2018-05-08T11:33:14.905Z,29.76
2018-05-08T11:34:14.919Z,29.85
2018-05-08T11:35:14.933Z,29.99
2018-05-08T11:36:14.940Z,30.16
2018-05-08T11:37:14.957Z,30.23
2018-05-08T11:38:14.956Z,29.97
2018-05-08T11:39:15.036Z,30.06
2018-05-08T11:40:14.981Z,30.01
2018-05-08T11:41:14.985Z,29.94
2018-05-08T11:42:14.998Z,29.78
2018-05-08T11:43:15.007Z,29.81
2018-05-08T11:44:15.021Z,29.66
2018-05-08T11:45:15.026Z,29.52
2018-05-08T11:46:15.030Z,29.30
2018-05-08T11:47:15.037Z,29.26
2018-05-08T11:48:15.056Z,29.26
2018-05-08T11:49:15.060Z,29.49
2018-05-08T11:50:15.061Z,29.52
2018-05-08T11:51:15.071Z,29.55
2018-05-08T11:52:15.078Z,29.57
2018-05-08T11:53:15.085Z,29.37
2018-05-08T11:54:15.096Z,29.29
2018-05-08T11:55:15.104Z,29.14
2018-05-08T11:56:15.112Z,29.26
2018-05-08T11:57:15.119Z,29.51
2018-05-08T11:58:15.122Z,29.73
2018-05-08T11:59:15.129Z,29.97
2018-05-08T12:00:15.137Z,30.03
2018-05-08T12:01:15.143Z,30.10
2018-05-08T12:02:15.156Z,30.06
2018-05-08T12:03:15.162Z,30.01
2018-05-08T12:04:15.164Z,29.82
2018-05-08T12:05:15.172Z,29.73
2018-05-08T12:06:15.183Z,29.84
2018-05-08T12:07:15.194Z,29.91
2018-05-08T12:08:15.197Z,29.81
2018-05-08T12:09:15.257Z,29.57
2018-05-08T12:10:15.206Z,29.51
2018-05-08T12:11:15.213Z,29.23
2018-05-08T12:12:15.219Z,29.21
2018-05-08T12:13:15.225Z,29.14
2018-05-08T12:14:15.237Z,29.20
2018-05-08T12:15:15.243Z,29.26
2018-05-08T12:16:15.261Z,29.21
2018-05-08T12:17:15.261Z,29.39
2018-05-08T12:18:15.259Z,29.45
2018-05-08T12:19:15.265Z,29.62
2018-05-08T12:20:15.280Z,29.67
2018-05-08T12:21:15.282Z,29.70
2018-05-08T12:22:15.285Z,29.52
2018-05-08T12:23:15.291Z,29.57
2018-05-08T12:24:15.298Z,29.73
2018-05-08T12:25:15.303Z,29.63
2018-05-08T12:26:15.315Z,29.48
2018-05-08T12:27:15.328Z,29.67
2018-05-08T12:28:15.328Z,29.76
2018-05-08T12:29:15.335Z,29.84
2018-05-08T12:30:15.336Z,29.62
2018-05-08T12:31:15.344Z,29.36
2018-05-08T12:32:15.353Z,29.15
2018-05-08T12:33:15.354Z,29.12
2018-05-08T12:34:15.366Z,29.18
2018-05-08T12:35:15.372Z,29.14
2018-05-08T12:36:15.427Z,29.27
2018-05-08T12:37:15.382Z,29.27
2018-05-08T12:38:15.429Z,29.48
2018-05-08T12:39:15.397Z,29.66
2018-05-08T12:40:15.403Z,29.84
2018-05-08T12:41:15.421Z,29.88
2018-05-08T12:42:15.411Z,29.99
2018-05-08T12:43:15.417Z,30.03
2018-05-08T12:44:15.509Z,30.15
2018-05-08T12:45:15.429Z,30.21
2018-05-08T12:46:15.442Z,30.30
2018-05-08T12:47:15.448Z,30.19
2018-05-08T12:48:15.458Z,30.04
2018-05-08T12:49:15.461Z,29.84
2018-05-08T12:50:15.464Z,29.73
2018-05-08T12:51:15.468Z,29.52
2018-05-08T12:52:15.478Z,29.58